Time;durP1;ratioP1;P1;durP2;ratioP2;P2;SDS_P1;SDS_P2;PMS_P1;PMS_P2;Temp;Humidity;BMP_temperature;BMP_pressure;BME280_temperature;BME280_humidity;BME280_pressure;Samples;Min_cycle;Max_cycle;Signal;HPM_P1;HPM_P2
2021/12/18 03:45:41;;;;;;;17.83;8.18;;;6.60;92.50;;;;;;5530396;24;21118;-79
2021/12/18 03:48:07;;;;;;;19.83;8.65;;;6.70;92.60;;;;;;4764464;30;20126;-81
2021/12/18 03:50:33;;;;;;;18.30;7.78;;;6.70;92.60;;;;;;4791298;29;20039;-81
2021/12/18 03:52:59;;;;;;;16.17;8.25;;;6.70;92.60;;;;;;4798561;29;20076;-82
2021/12/18 03:55:26;;;;;;;13.50;8.07;;;6.70;92.50;;;;;;4783217;30;20080;-80
2021/12/18 03:57:53;;;;;;;19.67;8.50;;;6.60;92.40;;;;;;4786460;30;20285;-82
2021/12/18 04:00:19;;;;;;;18.85;8.70;;;6.60;92.60;;;;;;4771299;30;20058;-81
2021/12/18 04:02:45;;;;;;;17.48;8.00;;;6.60;92.70;;;;;;4799193;30;20043;-82
2021/12/18 04:05:11;;;;;;;12.20;7.20;;;6.60;92.70;;;;;;4783096;30;20039;-82
2021/12/18 04:07:43;;;;;;;14.85;7.93;;;6.60;92.40;;;;;;4783141;30;20035;-82
2021/12/18 04:10:11;;;;;;;17.50;7.47;;;6.60;92.50;;;;;;4783880;30;20042;-82
2021/12/18 04:12:37;;;;;;;23.20;9.05;;;6.60;92.30;;;;;;4800764;29;20027;-81
2021/12/18 04:15:03;;;;;;;15.80;8.00;;;6.60;92.30;;;;;;4812945;29;20045;-80
2021/12/18 04:17:29;;;;;;;21.05;7.78;;;6.60;92.30;;;;;;4782723;30;20272;-81
2021/12/18 04:19:55;;;;;;;15.65;7.38;;;6.60;92.20;;;;;;4797980;29;20114;-80
2021/12/18 04:22:21;;;;;;;17.67;7.22;;;6.60;91.90;;;;;;4768289;30;20058;-80
2021/12/18 04:24:47;;;;;;;23.95;8.23;;;6.60;91.90;;;;;;4758367;30;20162;-82
2021/12/18 04:27:13;;;;;;;16.23;7.65;;;6.60;91.80;;;;;;4780617;30;20039;-80
2021/12/18 04:29:39;;;;;;;19.55;8.15;;;6.60;91.80;;;;;;4779829;29;20223;-80
2021/12/18 04:32:05;;;;;;;23.48;8.05;;;6.60;91.90;;;;;;4796884;29;20293;-80
2021/12/18 04:34:30;;;;;;;13.98;6.88;;;6.60;91.90;;;;;;4767970;30;20043;-80
2021/12/18 04:36:56;;;;;;;17.92;7.50;;;6.50;91.90;;;;;;4782535;30;20421;-81
2021/12/18 04:39:22;;;;;;;22.35;8.73;;;6.60;92.20;;;;;;4755718;30;20073;-80
2021/12/18 04:41:51;;;;;;;19.60;8.07;;;6.60;92.20;;;;;;4797603;30;20043;-82
2021/12/18 04:44:17;;;;;;;15.50;7.80;;;6.60;92.30;;;;;;4768686;30;20031;-82
2021/12/18 04:46:43;;;;;;;19.42;7.93;;;6.60;92.40;;;;;;4823713;29;20050;-82
2021/12/18 04:49:09;;;;;;;15.70;7.22;;;6.60;92.30;;;;;;4800217;29;20062;-81
2021/12/18 04:51:35;;;;;;;21.15;8.90;;;6.60;92.30;;;;;;4800285;29;20046;-82
2021/12/18 04:54:01;;;;;;;16.33;8.25;;;6.60;92.50;;;;;;4785430;29;20271;-81
2021/12/18 04:56:27;;;;;;;15.23;7.93;;;6.60;92.30;;;;;;4815350;29;20038;-82
2021/12/18 04:58:52;;;;;;;20.50;9.23;;;6.60;92.50;;;;;;4830059;29;20098;-82
2021/12/18 05:01:18;;;;;;;22.50;8.70;;;6.60;92.50;;;;;;4811473;29;20031;-82
2021/12/18 05:03:46;;;;;;;18.27;9.18;;;6.50;92.50;;;;;;4793814;29;20061;-82
2021/12/18 05:06:12;;;;;;;22.60;8.70;;;6.50;92.60;;;;;;4800116;29;20051;-81
2021/12/18 05:08:38;;;;;;;17.98;7.75;;;6.50;92.70;;;;;;4799886;29;20226;-81
2021/12/18 05:11:03;;;;;;;20.45;7.75;;;6.50;92.70;;;;;;4785061;29;20071;-82
2021/12/18 05:13:29;;;;;;;25.40;8.88;;;6.50;92.80;;;;;;4785171;29;20330;-82
2021/12/18 05:15:55;;;;;;;23.30;9.13;;;6.50;92.80;;;;;;4799849;29;20517;-82
2021/12/18 05:18:21;;;;;;;17.73;9.05;;;6.50;92.80;;;;;;4784999;29;20070;-81
2021/12/18 05:20:46;;;;;;;21.60;8.60;;;6.50;92.60;;;;;;4770203;29;20054;-82
2021/12/18 05:23:12;;;;;;;18.55;9.23;;;6.50;92.70;;;;;;4799864;29;20063;-82
2021/12/18 05:25:38;;;;;;;18.45;8.82;;;6.50;92.70;;;;;;4800008;29;20390;-81
2021/12/18 05:28:04;;;;;;;20.05;8.35;;;6.50;92.80;;;;;;4799736;29;20072;-81
2021/12/18 05:30:30;;;;;;;20.60;9.18;;;6.60;92.70;;;;;;4799780;29;20106;-81
2021/12/18 05:32:56;;;;;;;18.73;8.88;;;6.60;92.70;;;;;;4799608;29;20038;-81
2021/12/18 05:35:21;;;;;;;25.02;12.02;;;6.60;92.70;;;;;;4784801;29;20038;-82
2021/12/18 05:37:50;;;;;;;24.90;12.50;;;6.60;92.90;;;;;;4799678;29;20102;-82
2021/12/18 05:40:19;;;;;;;27.00;13.73;;;6.70;93.00;;;;;;4814645;29;20042;-81
2021/12/18 05:42:46;;;;;;;29.65;16.50;;;6.70;93.10;;;;;;4829728;29;20030;-82
2021/12/18 05:45:12;;;;;;;29.67;14.80;;;6.80;93.10;;;;;;4814608;29;20211;-81
2021/12/18 05:47:38;;;;;;;24.95;15.40;;;6.70;93.30;;;;;;4806433;29;20085;-82
2021/12/18 05:50:06;;;;;;;25.80;16.30;;;6.70;93.40;;;;;;4799539;29;20039;-81
2021/12/18 05:52:32;;;;;;;30.98;17.25;;;6.60;93.60;;;;;;4799527;29;20027;-82
2021/12/18 05:54:58;;;;;;;30.13;16.90;;;6.60;93.80;;;;;;4796518;29;20331;-81
2021/12/18 05:57:24;;;;;;;30.67;17.17;;;6.60;93.90;;;;;;4802886;29;20026;-81
2021/12/18 05:59:49;;;;;;;32.42;16.42;;;6.50;94.00;;;;;;4784515;29;20043;-81
2021/12/18 06:02:15;;;;;;;36.92;18.88;;;6.50;94.10;;;;;;4814457;29;20035;-82
2021/12/18 06:04:42;;;;;;;37.33;17.35;;;6.50;94.10;;;;;;4799598;29;20034;-81
2021/12/18 06:07:16;;;;;;;29.23;16.50;;;6.40;94.10;;;;;;4811627;29;20050;-81
2021/12/18 06:09:42;;;;;;;34.25;17.52;;;6.50;94.20;;;;;;4790434;30;20039;-82
2021/12/18 06:12:09;;;;;;;34.10;17.92;;;6.50;94.10;;;;;;4811429;29;20035;-82
2021/12/18 06:14:35;;;;;;;31.75;17.20;;;6.50;94.20;;;;;;4799077;29;20050;-82
2021/12/18 06:17:00;;;;;;;30.55;16.95;;;6.50;94.20;;;;;;4829472;29;20035;-82
2021/12/18 06:19:26;;;;;;;29.95;17.35;;;6.50;94.30;;;;;;4814466;29;20035;-81
2021/12/18 06:21:52;;;;;;;32.83;17.83;;;6.50;94.20;;;;;;4829395;29;20042;-81
2021/12/18 06:24:18;;;;;;;32.65;17.17;;;6.50;94.10;;;;;;4799354;29;20334;-81
2021/12/18 06:26:44;;;;;;;31.52;18.23;;;6.50;94.10;;;;;;4799134;29;20034;-81
2021/12/18 06:29:11;;;;;;;34.42;18.60;;;6.50;94.10;;;;;;4799376;29;20030;-81
2021/12/18 06:31:38;;;;;;;28.17;17.45;;;6.50;94.20;;;;;;4814469;29;20214;-81
2021/12/18 06:34:04;;;;;;;32.00;18.95;;;6.50;94.20;;;;;;4799391;29;20038;-81
2021/12/18 06:36:30;;;;;;;35.10;20.90;;;6.40;94.20;;;;;;4814618;29;20027;-82
2021/12/18 06:38:56;;;;;;;31.75;18.77;;;6.40;94.30;;;;;;4814168;29;20199;-80
2021/12/18 06:41:22;;;;;;;37.80;18.17;;;6.40;94.30;;;;;;4814049;29;20034;-82
2021/12/18 06:43:48;;;;;;;33.08;20.45;;;6.40;94.30;;;;;;4814205;29;20031;-82
2021/12/18 06:46:13;;;;;;;34.13;18.83;;;6.40;94.20;;;;;;4810046;29;20043;-81
2021/12/18 06:48:39;;;;;;;32.75;18.20;;;6.40;94.30;;;;;;4775434;29;20054;-82
2021/12/18 06:51:05;;;;;;;35.80;18.75;;;6.40;94.30;;;;;;4778798;29;20058;-82
2021/12/18 06:53:31;;;;;;;32.10;19.05;;;6.40;94.30;;;;;;4789614;29;20038;-82
2021/12/18 06:55:57;;;;;;;34.33;17.85;;;6.30;94.30;;;;;;4808017;29;20102;-82
2021/12/18 06:58:23;;;;;;;32.83;19.35;;;6.40;94.30;;;;;;4809153;29;20215;-82
2021/12/18 07:00:49;;;;;;;32.97;19.13;;;6.40;94.30;;;;;;4793492;29;20225;-82
2021/12/18 07:03:15;;;;;;;37.10;20.27;;;6.40;94.70;;;;;;4778371;29;20038;-81
2021/12/18 07:05:40;;;;;;;35.53;20.63;;;6.40;94.50;;;;;;4793052;29;20055;-81
2021/12/18 07:08:06;;;;;;;37.90;20.15;;;6.40;94.50;;;;;;4801007;29;20034;-81
2021/12/18 07:10:32;;;;;;;34.42;19.55;;;6.50;94.50;;;;;;4813994;29;20027;-80
2021/12/18 07:12:58;;;;;;;36.75;19.75;;;6.50;94.40;;;;;;4815074;29;20038;-81
2021/12/18 07:15:24;;;;;;;32.55;20.40;;;6.50;94.20;;;;;;4831660;29;20026;-81
2021/12/18 07:17:50;;;;;;;36.45;21.55;;;6.50;94.30;;;;;;4800224;29;20062;-82
2021/12/18 07:20:15;;;;;;;36.50;19.92;;;6.50;94.40;;;;;;4780486;29;20051;-81
2021/12/18 07:22:41;;;;;;;40.63;21.63;;;6.40;94.30;;;;;;4791594;29;20242;-83
2021/12/18 07:25:08;;;;;;;34.58;20.65;;;6.40;94.50;;;;;;4772423;29;20067;-82
2021/12/18 07:27:33;;;;;;;38.50;20.43;;;6.50;94.50;;;;;;4824468;29;20051;-81
2021/12/18 07:29:59;;;;;;;34.25;19.83;;;6.50;94.80;;;;;;4801044;29;20020;-81
2021/12/18 07:32:27;;;;;;;34.08;19.85;;;6.50;94.30;;;;;;4825994;29;20050;-81
2021/12/18 07:34:53;;;;;;;;;;;6.60;94.30;;;;;;4836025;29;20031;-82
2021/12/18 07:37:19;;;;;;;35.08;18.58;;;6.60;94.20;;;;;;4824826;29;19909;-82
2021/12/18 07:39:45;;;;;;;34.42;17.02;;;6.60;94.00;;;;;;4815449;29;20061;-81
2021/12/18 07:42:10;;;;;;;30.40;17.13;;;6.60;93.80;;;;;;4807828;29;20036;-83
2021/12/18 07:44:36;;;;;;;28.77;16.75;;;6.60;93.70;;;;;;4830270;29;20076;-82
2021/12/18 07:47:02;;;;;;;33.92;17.20;;;6.60;93.70;;;;;;4827913;29;20080;-83
2021/12/18 07:49:28;;;;;;;27.75;15.82;;;6.70;93.40;;;;;;4808922;29;20031;-82
2021/12/18 07:51:59;;;;;;;27.67;15.02;;;6.70;93.50;;;;;;4820444;29;20034;-81
2021/12/18 07:54:25;;;;;;;27.85;15.65;;;6.70;93.00;;;;;;4825191;29;20022;-83
2021/12/18 07:56:51;;;;;;;26.92;15.80;;;6.70;92.80;;;;;;4815116;29;20065;-82
2021/12/18 07:59:16;;;;;;;28.80;15.75;;;6.80;92.80;;;;;;4811126;29;20065;-82
2021/12/18 08:01:42;;;;;;;28.55;16.73;;;6.80;92.80;;;;;;4797853;29;20099;-82
2021/12/18 08:04:08;;;;;;;25.75;15.10;;;6.90;92.70;;;;;;4785425;29;20072;-82
2021/12/18 08:06:34;;;;;;;29.63;16.95;;;7.00;92.40;;;;;;4785377;29;20072;-82
2021/12/18 08:09:00;;;;;;;27.52;15.55;;;7.00;92.40;;;;;;4812535;29;20234;-82
2021/12/18 08:11:26;;;;;;;25.83;14.00;;;7.00;92.10;;;;;;4795687;29;20026;-82
2021/12/18 08:13:51;;;;;;;25.08;13.85;;;7.00;92.20;;;;;;4765816;29;20064;-82
2021/12/18 08:16:17;;;;;;;26.35;14.18;;;7.10;92.10;;;;;;4787444;29;20113;-82
2021/12/18 08:18:43;;;;;;;23.35;14.68;;;7.20;92.00;;;;;;4810079;29;20039;-81
2021/12/18 08:21:09;;;;;;;25.63;14.00;;;7.30;91.90;;;;;;4780069;29;20046;-82
2021/12/18 08:23:34;;;;;;;24.17;15.13;;;7.20;91.30;;;;;;4795939;29;20054;-82
2021/12/18 08:26:00;;;;;;;26.83;14.05;;;7.20;91.00;;;;;;4795024;29;20039;-81
2021/12/18 08:28:26;;;;;;;23.85;12.98;;;7.30;90.90;;;;;;4809396;29;20118;-82
2021/12/18 08:30:52;;;;;;;22.30;12.52;;;7.20;91.00;;;;;;4778778;29;20062;-82
2021/12/18 08:33:18;;;;;;;24.77;13.05;;;7.30;90.40;;;;;;4804804;29;20203;-82
2021/12/18 08:35:43;;;;;;;25.15;12.52;;;7.30;90.60;;;;;;4777355;29;20038;-82
2021/12/18 08:38:09;;;;;;;23.52;13.02;;;7.30;90.40;;;;;;4824088;29;20085;-82
2021/12/18 08:40:36;;;;;;;22.15;12.27;;;7.40;90.50;;;;;;4823986;29;20226;-82
2021/12/18 08:43:03;;;;;;;21.38;12.52;;;7.50;90.20;;;;;;4792399;29;20070;-82
2021/12/18 08:45:30;;;;;;;21.75;11.27;;;7.50;90.10;;;;;;4809235;29;20099;-82
2021/12/18 08:47:56;;;;;;;18.30;10.05;;;7.60;89.30;;;;;;4808470;29;20429;-81
2021/12/18 08:50:22;;;;;;;26.67;12.07;;;7.60;89.00;;;;;;4796627;29;20045;-81
2021/12/18 08:52:50;;;;;;;26.63;10.85;;;7.60;87.70;;;;;;4807492;29;20031;-82
2021/12/18 08:55:18;;;;;;;19.67;10.60;;;7.60;88.70;;;;;;4812099;29;20031;-80
2021/12/18 08:57:44;;;;;;;20.08;10.20;;;7.60;87.70;;;;;;4823834;29;20030;-81
2021/12/18 09:00:14;;;;;;;21.92;10.75;;;7.60;87.40;;;;;;4810853;29;20352;-81
2021/12/18 09:02:40;;;;;;;18.67;11.77;;;7.70;87.50;;;;;;4810895;29;20039;-81
2021/12/18 09:05:08;;;;;;;18.42;10.05;;;7.80;87.80;;;;;;4784120;29;20044;-81
2021/12/18 09:07:34;;;;;;;22.25;11.68;;;7.90;86.70;;;;;;4823837;29;20047;-81
2021/12/18 09:10:00;;;;;;;20.17;11.95;;;7.90;86.60;;;;;;4795985;29;20030;-82
2021/12/18 09:12:26;;;;;;;26.33;11.63;;;8.00;86.50;;;;;;4818503;29;20338;-81
2021/12/18 09:14:52;;;;;;;25.50;11.73;;;8.10;85.90;;;;;;4780321;29;20107;-81
2021/12/18 09:17:18;;;;;;;23.95;11.18;;;8.10;86.10;;;;;;4794208;29;20043;-82
2021/12/18 09:19:44;;;;;;;17.60;11.80;;;8.10;84.50;;;;;;4792648;29;20226;-82
2021/12/18 09:22:10;;;;;;;21.77;11.13;;;8.10;85.50;;;;;;4821031;29;20023;-81
2021/12/18 09:24:38;;;;;;;23.38;12.57;;;8.20;84.80;;;;;;4813915;29;20031;-81
2021/12/18 09:27:05;;;;;;;24.95;13.32;;;8.20;84.70;;;;;;4814156;29;20059;-81
2021/12/18 09:29:30;;;;;;;;;;;8.20;84.90;;;;;;4814575;29;20169;-81
2021/12/18 09:31:56;;;;;;;27.10;13.73;;;8.20;84.50;;;;;;4808696;29;19916;-81
2021/12/18 09:34:22;;;;;;;25.05;12.85;;;8.30;84.50;;;;;;4784075;29;20030;-82
2021/12/18 09:36:48;;;;;;;23.67;13.88;;;8.20;84.10;;;;;;4814256;29;20113;-82
2021/12/18 09:39:14;;;;;;;23.85;13.05;;;8.10;84.70;;;;;;4799050;29;20035;-81
2021/12/18 09:41:42;;;;;;;22.85;12.68;;;8.10;85.30;;;;;;4799216;29;20042;-80
2021/12/18 09:44:08;;;;;;;30.02;12.77;;;8.20;84.40;;;;;;4827956;29;20035;-82
2021/12/18 09:46:34;;;;;;;24.13;12.95;;;8.10;84.50;;;;;;4792836;29;20131;-83
2021/12/18 09:49:01;;;;;;;27.83;13.40;;;8.00;84.70;;;;;;4798684;29;20035;-83
2021/12/18 09:51:27;;;;;;;25.00;13.75;;;7.90;85.20;;;;;;4813467;29;20119;-82
2021/12/18 09:53:55;;;;;;;24.83;13.18;;;7.80;85.80;;;;;;4812634;29;20219;-82
2021/12/18 09:56:23;;;;;;;25.08;14.00;;;7.70;86.50;;;;;;4828114;29;20034;-81
2021/12/18 09:58:49;;;;;;;22.23;12.60;;;7.80;86.70;;;;;;4791785;29;20223;-82
2021/12/18 10:01:16;;;;;;;21.70;12.48;;;7.90;86.90;;;;;;4806957;29;20046;-81
2021/12/18 10:03:48;;;;;;;20.58;12.63;;;7.80;86.30;;;;;;4813656;29;20093;-82
2021/12/18 10:06:42;;;;;;;22.75;13.15;;;7.80;86.70;;;;;;4807996;29;20039;-82
2021/12/18 10:09:20;;;;;;;27.42;14.05;;;7.70;86.90;;;;;;4813069;29;20042;-82
2021/12/18 10:11:56;;;;;;;25.88;14.48;;;7.70;87.10;;;;;;4812096;29;20113;-82
2021/12/18 10:14:39;;;;;;;27.07;13.67;;;7.70;87.60;;;;;;4811378;29;20067;-82
2021/12/18 10:17:18;;;;;;;27.33;13.02;;;7.70;87.50;;;;;;4794494;29;20100;-82
2021/12/18 10:19:44;;;;;;;27.58;14.38;;;7.80;87.10;;;;;;4813368;29;20096;-82
2021/12/18 10:22:11;;;;;;;27.55;13.98;;;7.80;86.80;;;;;;4812560;29;20031;-82
2021/12/18 10:24:41;;;;;;;26.75;15.10;;;7.80;87.10;;;;;;4812224;29;20027;-82
2021/12/18 10:27:20;;;;;;;26.38;14.25;;;7.80;87.60;;;;;;4809858;29;20102;-82
2021/12/18 10:29:47;;;;;;;24.88;15.55;;;7.80;87.60;;;;;;4825443;29;20027;-82
2021/12/18 10:32:16;;;;;;;26.77;14.82;;;7.80;88.00;;;;;;4796381;29;20038;-81
2021/12/18 10:34:49;;;;;;;26.25;14.40;;;7.80;88.10;;;;;;4813249;29;20085;-80
2021/12/18 10:37:23;;;;;;;24.63;14.27;;;7.80;87.70;;;;;;4816735;29;20072;-81
2021/12/18 10:39:54;;;;;;;29.77;14.23;;;8.00;88.20;;;;;;4816769;29;20074;-81
2021/12/18 10:42:25;;;;;;;24.58;13.45;;;8.20;87.70;;;;;;4832033;29;20030;-80
2021/12/18 10:45:14;;;;;;;28.45;14.05;;;8.40;86.40;;;;;;4800798;29;20043;-81
2021/12/18 10:47:48;;;;;;;20.08;12.15;;;8.30;85.30;;;;;;4808310;29;20074;-81
2021/12/18 10:50:20;;;;;;;22.60;12.18;;;8.30;85.30;;;;;;4815230;29;20047;-80
2021/12/18 10:52:53;;;;;;;20.05;12.40;;;8.30;84.90;;;;;;4822571;29;20329;-82
2021/12/18 10:55:19;;;;;;;18.73;11.38;;;8.40;85.50;;;;;;4828239;29;20067;-82
2021/12/18 10:57:53;;;;;;;22.73;11.93;;;8.40;85.30;;;;;;4795082;29;20226;-80
2021/12/18 11:00:34;;;;;;;23.08;11.80;;;8.50;84.50;;;;;;4806955;29;20080;-80
2021/12/18 11:03:26;;;;;;;23.05;11.23;;;8.50;84.60;;;;;;4808692;29;20062;-81
2021/12/18 11:06:15;;;;;;;18.50;10.20;;;8.60;83.70;;;;;;4829555;29;20069;-82
2021/12/18 11:09:04;;;;;;;17.25;10.80;;;8.70;82.80;;;;;;4811301;29;20038;-81
2021/12/18 11:14:39;;;;;;;15.27;9.63;;;8.60;82.30;;;;;;4830442;29;20061;-82
2021/12/18 11:17:09;;;;;;;19.83;10.63;;;8.50;83.30;;;;;;4821596;29;20058;-82
2021/12/18 11:19:36;;;;;;;22.17;9.38;;;8.50;82.80;;;;;;4820530;29;20030;-80
2021/12/18 11:22:28;;;;;;;15.48;9.38;;;8.60;83.40;;;;;;4831085;29;20105;-82
2021/12/18 11:25:09;;;;;;;19.50;10.73;;;8.60;82.70;;;;;;4751073;30;20246;-82
2021/12/18 11:27:37;;;;;;;16.65;9.80;;;8.60;82.40;;;;;;4777027;30;20043;-82
2021/12/18 11:30:06;;;;;;;;;;;8.50;82.50;;;;;;4770141;30;20044;-81
2021/12/18 11:32:36;;;;;;;16.55;10.13;;;8.50;83.00;;;;;;4792326;30;19917;-82
2021/12/18 11:35:05;;;;;;;18.35;10.38;;;8.50;83.40;;;;;;4788151;30;20092;-81
2021/12/18 11:37:45;;;;;;;18.52;9.40;;;8.40;83.30;;;;;;4783408;30;20039;-81
2021/12/18 11:40:24;;;;;;;17.98;10.82;;;8.50;84.20;;;;;;4775217;30;20046;-81
2021/12/18 11:42:51;;;;;;;19.30;10.52;;;8.60;84.20;;;;;;4773338;30;20047;-81
2021/12/18 11:45:16;;;;;;;29.80;11.43;;;8.60;84.20;;;;;;4776433;30;20027;-81
2021/12/18 11:47:54;;;;;;;18.13;10.82;;;8.70;84.00;;;;;;4761774;30;20398;-81
2021/12/18 11:50:22;;;;;;;19.90;11.02;;;8.70;83.70;;;;;;4791262;30;20055;-82
2021/12/18 11:52:58;;;;;;;21.65;11.45;;;8.60;84.40;;;;;;4760782;30;20144;-82
2021/12/18 11:55:26;;;;;;;22.88;12.25;;;8.70;84.70;;;;;;4791225;30;20070;-81
2021/12/18 11:57:58;;;;;;;19.15;12.32;;;8.70;83.90;;;;;;4761867;30;20031;-81
2021/12/18 12:00:40;;;;;;;23.08;12.32;;;8.70;85.00;;;;;;4760905;30;20070;-82
2021/12/18 12:03:09;;;;;;;25.83;13.30;;;8.70;84.50;;;;;;4824873;29;20323;-80
2021/12/18 12:05:41;;;;;;;21.65;13.55;;;8.70;85.00;;;;;;4812434;29;20039;-82
2021/12/18 12:08:26;;;;;;;24.33;13.50;;;8.60;84.90;;;;;;4811254;29;20080;-80
2021/12/18 12:11:15;;;;;;;24.77;13.27;;;8.60;85.20;;;;;;4807747;29;20237;-80
2021/12/18 12:14:08;;;;;;;19.05;11.25;;;8.70;85.30;;;;;;4804422;29;20218;-82
2021/12/18 12:16:57;;;;;;;23.13;13.20;;;8.80;84.80;;;;;;4792740;29;20041;-82
2021/12/18 12:19:39;;;;;;;25.38;12.88;;;8.90;85.10;;;;;;4741759;30;20044;-82
2021/12/18 12:22:12;;;;;;;18.30;11.65;;;8.90;84.80;;;;;;4739454;30;20055;-82
2021/12/18 12:25:00;;;;;;;19.80;12.23;;;8.80;83.10;;;;;;4730363;30;20275;-82
2021/12/18 12:27:31;;;;;;;22.38;11.63;;;8.70;84.30;;;;;;4728817;30;20068;-82
2021/12/18 12:29:59;;;;;;;20.15;11.52;;;8.70;84.20;;;;;;4741390;30;20032;-80
2021/12/18 12:32:26;;;;;;;26.40;11.55;;;8.80;83.90;;;;;;4756777;30;20044;-81
2021/12/18 12:35:04;;;;;;;21.80;12.50;;;8.70;84.10;;;;;;4744702;30;20040;-80
2021/12/18 12:37:43;;;;;;;25.98;13.73;;;8.80;83.40;;;;;;4755380;30;20244;-81
2021/12/18 12:40:31;;;;;;;24.27;13.82;;;8.80;84.20;;;;;;4752934;30;20033;-82
2021/12/18 12:43:15;;;;;;;20.58;11.40;;;8.80;83.60;;;;;;4740905;30;20040;-80
2021/12/18 12:45:44;;;;;;;18.60;10.32;;;8.70;83.00;;;;;;4743575;30;20348;-80
2021/12/18 12:48:10;;;;;;;17.08;10.15;;;8.70;83.80;;;;;;4744554;30;20060;-80
2021/12/18 12:50:37;;;;;;;17.98;10.05;;;8.60;82.90;;;;;;4742672;30;20276;-81
2021/12/18 12:53:08;;;;;;;16.60;9.45;;;8.70;83.70;;;;;;4732735;30;20244;-80
2021/12/18 12:55:51;;;;;;;23.13;11.13;;;8.80;83.10;;;;;;4760591;29;20043;-80
2021/12/18 12:58:22;;;;;;;13.40;8.98;;;8.70;83.50;;;;;;4813717;29;20326;-82
2021/12/18 13:01:17;;;;;;;18.02;10.55;;;8.70;83.20;;;;;;4783759;29;20038;-81
2021/12/18 13:03:48;;;;;;;21.25;11.48;;;8.60;83.30;;;;;;4812387;29;20330;-81
2021/12/18 13:06:22;;;;;;;18.40;10.38;;;8.50;83.40;;;;;;4823312;29;20034;-81
2021/12/18 13:08:49;;;;;;;17.00;9.30;;;8.50;83.40;;;;;;4796025;29;20291;-81
2021/12/18 13:11:23;;;;;;;;;;;8.50;84.00;;;;;;4809077;29;20065;-81
2021/12/18 13:13:50;;;;;;;18.02;10.25;;;8.60;83.80;;;;;;4821896;29;19909;-82
2021/12/18 13:16:18;;;;;;;16.40;9.85;;;8.60;83.80;;;;;;4825376;29;20035;-80
2021/12/18 13:18:48;;;;;;;15.88;9.88;;;8.50;83.90;;;;;;4797601;29;20049;-81
2021/12/18 13:21:17;;;;;;;19.20;10.52;;;8.50;83.50;;;;;;4804939;29;20034;-81
2021/12/18 13:24:12;;;;;;;17.58;10.52;;;8.50;84.10;;;;;;4828471;29;20095;-81
2021/12/18 13:26:41;;;;;;;17.38;10.68;;;8.50;84.10;;;;;;4755976;30;20235;-81
2021/12/18 13:29:14;;;;;;;17.17;10.60;;;8.60;84.30;;;;;;4747290;30;20032;-81
2021/12/18 13:31:54;;;;;;;18.60;10.57;;;8.60;83.90;;;;;;4740837;30;20040;-82
2021/12/18 13:34:41;;;;;;;14.93;10.20;;;8.50;84.30;;;;;;4764197;30;20401;-82
2021/12/18 13:37:11;;;;;;;24.00;11.18;;;8.60;84.30;;;;;;4760468;30;20052;-81
2021/12/18 13:39:43;;;;;;;17.73;11.07;;;8.70;84.40;;;;;;4757044;30;20036;-81
2021/12/18 13:42:12;;;;;;;19.58;11.80;;;8.70;84.60;;;;;;4761385;30;20065;-81
2021/12/18 13:44:38;;;;;;;23.85;12.23;;;8.60;84.10;;;;;;4762094;30;20053;-82
2021/12/18 13:47:24;;;;;;;17.15;10.68;;;8.60;84.70;;;;;;4761911;30;20102;-81
2021/12/18 13:49:58;;;;;;;17.33;11.30;;;8.50;84.50;;;;;;4771366;30;20051;-81
2021/12/18 13:52:32;;;;;;;19.92;12.07;;;8.40;84.90;;;;;;4749189;30;20105;-81
2021/12/18 13:54:58;;;;;;;17.13;11.10;;;8.40;85.10;;;;;;4753868;30;20038;-81
2021/12/18 13:57:24;;;;;;;27.05;11.75;;;8.30;85.40;;;;;;4767793;30;20119;-81
2021/12/18 14:00:00;;;;;;;22.00;12.05;;;8.30;85.50;;;;;;4724990;30;20024;-81
2021/12/18 14:02:26;;;;;;;20.17;11.07;;;8.30;85.50;;;;;;4789074;29;20077;-81
2021/12/18 14:04:53;;;;;;;20.33;11.50;;;8.30;85.60;;;;;;4811579;29;20074;-81
2021/12/18 14:07:20;;;;;;;17.15;10.88;;;8.30;85.70;;;;;;4831696;29;20046;-81
2021/12/18 14:09:50;;;;;;;16.17;9.80;;;8.20;85.40;;;;;;4833428;29;20226;-80
2021/12/18 14:12:22;;;;;;;24.30;10.98;;;8.20;85.90;;;;;;4819560;29;20031;-80
2021/12/18 14:14:49;;;;;;;15.93;10.38;;;8.20;85.70;;;;;;4819201;29;20230;-81
2021/12/18 14:17:24;;;;;;;23.10;11.52;;;8.10;85.80;;;;;;4833369;29;20031;-81
2021/12/18 14:19:53;;;;;;;20.65;11.55;;;8.10;85.50;;;;;;4811499;29;20042;-81
2021/12/18 14:22:28;;;;;;;18.50;11.70;;;8.10;85.70;;;;;;4798555;30;20036;-81
2021/12/18 14:25:07;;;;;;;19.38;11.13;;;8.10;85.80;;;;;;4794025;29;20039;-81
2021/12/18 14:27:37;;;;;;;17.63;11.02;;;8.00;86.30;;;;;;4822976;29;20043;-82
2021/12/18 14:30:10;;;;;;;17.90;10.43;;;7.90;86.30;;;;;;4808339;29;20035;-81
2021/12/18 14:32:35;;;;;;;17.42;11.45;;;7.90;86.40;;;;;;4829827;29;20375;-83
2021/12/18 14:35:05;;;;;;;19.58;11.80;;;7.80;86.50;;;;;;4813011;29;20058;-82
2021/12/18 14:37:31;;;;;;;17.40;12.05;;;7.80;86.70;;;;;;4815713;29;20057;-82
2021/12/18 14:39:58;;;;;;;22.10;11.88;;;7.80;86.80;;;;;;4815604;29;20034;-81
2021/12/18 14:42:29;;;;;;;24.45;13.05;;;7.70;87.10;;;;;;4841725;29;20023;-80
2021/12/18 14:45:08;;;;;;;28.50;13.63;;;7.70;87.00;;;;;;4843059;29;20039;-82
2021/12/18 14:47:54;;;;;;;28.58;14.57;;;7.70;87.30;;;;;;4808871;29;20042;-82
2021/12/18 14:50:20;;;;;;;21.98;12.30;;;7.70;87.60;;;;;;4816670;29;20055;-82
2021/12/18 14:53:01;;;;;;;19.65;11.10;;;7.70;87.30;;;;;;4815185;29;20038;-83
2021/12/18 14:55:36;;;;;;;21.55;10.25;;;7.70;87.20;;;;;;4810498;29;20078;-82
2021/12/18 14:58:22;;;;;;;15.20;9.80;;;7.80;87.10;;;;;;4811775;29;20031;-83
2021/12/18 15:01:04;;;;;;;17.85;10.60;;;7.80;86.90;;;;;;4810560;29;20046;-81
2021/12/18 15:03:40;;;;;;;19.08;10.93;;;7.80;87.00;;;;;;4813468;29;20256;-82
2021/12/18 15:06:19;;;;;;;21.25;10.90;;;7.70;86.80;;;;;;4809408;29;20338;-82
2021/12/18 15:08:59;;;;;;;17.58;10.20;;;7.80;86.90;;;;;;4811762;29;20335;-82
2021/12/18 15:11:34;;;;;;;18.90;11.23;;;7.80;86.70;;;;;;4812106;29;20062;-81
2021/12/18 15:14:00;;;;;;;18.42;11.15;;;7.80;86.60;;;;;;4821938;29;20039;-83
2021/12/18 15:16:30;;;;;;;16.40;10.15;;;7.80;86.50;;;;;;4809945;29;20236;-82
2021/12/18 15:18:59;;;;;;;19.38;10.27;;;7.80;86.70;;;;;;4827272;29;20091;-82
2021/12/18 15:21:28;;;;;;;20.38;10.63;;;7.80;86.50;;;;;;4815399;29;20110;-81
2021/12/18 15:23:54;;;;;;;18.77;10.43;;;7.80;86.30;;;;;;4797664;29;20039;-82
2021/12/18 15:26:20;;;;;;;19.30;10.85;;;7.80;86.00;;;;;;4814247;29;20046;-81
2021/12/18 15:28:46;;;;;;;19.83;11.25;;;7.70;86.20;;;;;;4815946;29;20338;-82
2021/12/18 15:31:13;;;;;;;17.40;11.07;;;7.70;86.50;;;;;;4815353;29;20041;-81
2021/12/18 15:33:39;;;;;;;17.40;10.32;;;7.80;86.50;;;;;;4815408;29;20039;-81
2021/12/18 15:36:05;;;;;;;16.40;10.40;;;7.80;86.30;;;;;;4814906;29;20039;-81
2021/12/18 15:38:32;;;;;;;17.08;10.52;;;7.80;86.10;;;;;;4830301;29;20053;-82
2021/12/18 15:40:58;;;;;;;20.80;11.32;;;7.80;86.20;;;;;;4825676;29;20361;-81
2021/12/18 15:43:25;;;;;;;18.17;10.65;;;7.70;86.00;;;;;;4815177;29;20066;-81
2021/12/18 15:45:52;;;;;;;17.45;10.07;;;7.70;86.20;;;;;;4826444;29;20318;-81
2021/12/18 15:48:18;;;;;;;23.13;11.15;;;7.70;85.80;;;;;;4829559;29;20393;-81
2021/12/18 15:50:44;;;;;;;20.27;10.13;;;7.80;86.10;;;;;;4814995;29;20038;-80
2021/12/18 15:53:11;;;;;;;21.48;10.38;;;7.80;85.80;;;;;;4830146;29;20039;-81
2021/12/18 15:55:37;;;;;;;16.67;10.35;;;7.80;85.90;;;;;;4829122;29;20046;-81
2021/12/18 15:58:04;;;;;;;17.27;10.10;;;7.80;85.20;;;;;;4807878;29;20039;-81
2021/12/18 16:00:32;;;;;;;19.38;10.32;;;7.80;85.40;;;;;;4826607;29;20042;-81
2021/12/18 16:02:58;;;;;;;13.68;8.48;;;7.80;85.30;;;;;;4791834;29;20105;-81
2021/12/18 16:05:26;;;;;;;19.35;8.60;;;7.80;85.20;;;;;;4794080;29;20041;-81
2021/12/18 16:07:54;;;;;;;16.30;9.05;;;7.80;85.00;;;;;;4782176;29;20042;-81
2021/12/18 16:10:21;;;;;;;18.48;8.75;;;7.80;85.10;;;;;;4824992;29;20335;-81
2021/12/18 16:12:47;;;;;;;16.20;9.32;;;7.80;85.10;;;;;;4827892;29;20039;-82
2021/12/18 16:15:13;;;;;;;13.25;8.32;;;7.80;85.10;;;;;;4794288;29;20041;-82
2021/12/18 16:17:40;;;;;;;22.13;8.95;;;7.80;84.30;;;;;;4799595;29;20114;-83
2021/12/18 16:20:07;;;;;;;16.17;8.50;;;7.80;84.10;;;;;;4791441;29;20027;-83
2021/12/18 16:22:32;;;;;;;;;;;7.80;84.50;;;;;;4810977;29;20048;-81
2021/12/18 16:24:58;;;;;;;18.03;10.17;;;7.80;83.60;;;;;;4810824;29;20039;-81
2021/12/18 16:27:24;;;;;;;18.27;9.45;;;7.70;84.10;;;;;;4809566;29;20038;-84
2021/12/18 16:29:50;;;;;;;19.23;9.98;;;7.80;84.30;;;;;;4796576;29;20349;-83
2021/12/18 16:32:15;;;;;;;19.58;10.13;;;7.80;84.10;;;;;;4827310;29;20106;-83
2021/12/18 16:34:41;;;;;;;20.20;10.02;;;7.80;83.80;;;;;;4826540;29;20260;-82
2021/12/18 16:37:09;;;;;;;15.38;9.50;;;7.80;83.40;;;;;;4796636;29;20072;-82
2021/12/18 16:39:36;;;;;;;14.52;8.88;;;7.70;83.60;;;;;;4797152;29;20031;-82